Time;durP1;ratioP1;P1;durP2;ratioP2;P2;SDS_P1;SDS_P2;PMS_P1;PMS_P2;Temp;Humidity;BMP_temperature;BMP_pressure;BME280_temperature;BME280_humidity;BME280_pressure;Samples;Min_cycle;Max_cycle;Signal;HPM_P1;HPM_P2
2022/10/21 06:58:17;;;;;;;;;8.25;4.00;;;;;17.93;76.55;100622.81;2722323;23;44941;-91
2022/10/21 06:59:27;;;;;;;;;6.25;5.00;;;;;17.93;76.66;100618.34;2401161;28;45423;-91
2022/10/21 07:00:37;;;;;;;;;4.25;4.00;;;;;17.93;76.85;100613.03;2397068;28;45424;-92
2022/10/21 07:01:48;;;;;;;;;8.00;6.50;;;;;17.94;76.73;100612.09;2387018;28;47292;-92
2022/10/21 07:02:58;;;;;;;;;6.00;5.00;;;;;17.94;76.41;100613.88;2391287;28;44764;-91
2022/10/21 07:04:09;;;;;;;;;4.75;4.25;;;;;17.93;76.83;100602.41;2393672;28;45313;-92
2022/10/21 07:05:19;;;;;;;;;6.00;3.00;;;;;17.95;76.78;100608.47;2391095;28;45500;-91
2022/10/21 07:06:30;;;;;;;;;5.50;5.50;;;;;17.97;76.76;100609.22;2396451;28;47738;-91
2022/10/21 07:07:41;;;;;;;;;4.25;3.25;;;;;17.95;76.39;100607.63;2410881;28;45431;-92
2022/10/21 07:08:51;;;;;;;;;4.00;4.00;;;;;17.97;76.58;100619.88;2393382;28;48325;-92
2022/10/21 07:10:02;;;;;;;;;7.00;5.00;;;;;17.96;76.61;100618.16;2378860;28;44793;-92
2022/10/21 07:11:13;;;;;;;;;2.00;2.00;;;;;17.97;76.62;100622.53;2384408;28;46939;-92
2022/10/21 07:12:25;;;;;;;;;4.75;4.75;;;;;17.96;76.85;100626.13;2384924;28;45384;-91
2022/10/21 07:13:36;;;;;;;;;6.50;4.00;;;;;17.98;76.50;100628.69;2392255;28;46830;-92
2022/10/21 07:14:46;;;;;;;;;5.50;5.50;;;;;17.99;76.36;100633.06;2385002;28;44650;-91
2022/10/21 07:16:01;;;;;;;;;4.00;4.00;;;;;17.97;76.35;100624.31;2383285;28;46026;-91
2022/10/21 07:17:11;;;;;;;;;6.00;6.00;;;;;17.99;76.61;100638.38;2380804;28;45338;-91
2022/10/21 07:18:21;;;;;;;;;4.50;4.50;;;;;17.97;76.54;100638.47;2386959;28;46300;-91
2022/10/21 07:19:32;;;;;;;;;4.25;4.25;;;;;17.97;76.67;100654.44;2401108;28;45433;-91
2022/10/21 07:20:42;;;;;;;;;8.25;5.75;;;;;17.98;76.29;100665.91;2403222;28;46635;-92
2022/10/21 07:21:53;;;;;;;;;4.75;4.75;;;;;17.97;76.69;100670.38;2404007;28;44722;-90
2022/10/21 07:23:03;;;;;;;;;5.75;5.00;;;;;17.98;76.36;100672.06;2394476;28;46611;-92
2022/10/21 07:24:14;;;;;;;;;6.00;5.00;;;;;17.98;76.69;100668.56;2389351;28;45259;-92
2022/10/21 07:25:24;;;;;;;;;6.25;5.25;;;;;17.98;76.94;100673.88;2391913;28;47869;-91
2022/10/21 07:26:34;;;;;;;;;6.75;6.00;;;;;17.99;76.85;100673.81;2387108;28;45247;-92
2022/10/21 07:27:47;;;;;;;;;6.75;6.00;;;;;18.00;76.66;100672.81;2393518;28;45635;-92
2022/10/21 07:28:59;;;;;;;;;7.25;6.50;;;;;18.00;76.50;100656.03;2392086;28;45254;-91
2022/10/21 07:30:10;;;;;;;;;3.25;3.00;;;;;18.01;76.67;100647.09;2386303;28;47492;-92
2022/10/21 07:31:20;;;;;;;;;7.75;5.00;;;;;18.00;76.76;100646.22;2397139;28;44795;-90
2022/10/21 07:32:31;;;;;;;;;7.50;7.25;;;;;18.00;76.63;100645.41;2388821;28;47084;-91
2022/10/21 07:33:41;;;;;;;;;6.50;5.75;;;;;18.01;76.75;100647.09;2393064;28;45294;-91
2022/10/21 07:34:52;;;;;;;;;10.25;7.75;;;;;18.00;76.35;100645.41;2398341;28;47293;-91
2022/10/21 07:36:25;;;;;;;;;4.00;3.00;;;;;17.99;76.58;100652.53;2390540;28;45303;-91
2022/10/21 07:37:35;;;;;;;;;5.00;5.00;;;;;17.99;76.42;100652.53;2393665;28;47215;-91
2022/10/21 07:38:47;;;;;;;;;6.50;5.00;;;;;18.00;76.45;100654.22;2394939;28;45283;-91
2022/10/21 07:39:57;;;;;;;;;6.00;5.50;;;;;18.01;76.78;100657.72;2396866;28;46302;-91
2022/10/21 07:41:13;;;;;;;;;7.25;5.50;;;;;18.02;76.50;100658.59;2401625;28;44707;-90
2022/10/21 07:42:24;;;;;;;;;4.50;4.50;;;;;18.03;76.53;100673.56;2402436;28;45354;-91
2022/10/21 07:43:34;;;;;;;;;5.00;5.00;;;;;18.02;76.52;100674.53;2389443;28;45294;-91
2022/10/21 07:44:44;;;;;;;;;3.50;3.50;;;;;18.03;76.62;100678.88;2383395;28;47053;-91
2022/10/21 07:45:57;;;;;;;;;5.50;5.00;;;;;18.02;76.75;100685.19;2393440;28;45427;-91
2022/10/21 07:47:07;;;;;;;;;7.00;4.75;;;;;18.03;76.34;100692.19;2389663;28;46817;-91
2022/10/21 07:48:18;;;;;;;;;5.00;5.00;;;;;18.02;76.29;100691.34;2386553;28;45310;-92
2022/10/21 07:49:28;;;;;;;;;4.75;4.00;;;;;18.02;76.51;100686.03;2394147;28;45407;-91
2022/10/21 07:50:39;;;;;;;;;4.00;4.00;;;;;18.02;76.64;100677.19;2400826;28;45438;-91
2022/10/21 07:51:49;;;;;;;;;2.75;2.75;;;;;18.04;76.63;100683.28;2394681;28;45238;-92
2022/10/21 07:53:01;;;;;;;;;4.50;4.50;;;;;18.05;76.73;100675.19;2394360;28;45218;-92
2022/10/21 07:54:13;;;;;;;;;5.25;5.00;;;;;18.05;76.26;100677.00;2393039;28;46961;-91
2022/10/21 07:55:23;;;;;;;;;7.75;4.00;;;;;18.07;76.49;100675.97;2382321;28;45535;-92
2022/10/21 07:56:40;;;;;;;;;3.75;3.75;;;;;18.08;76.89;100682.97;2390441;28;45616;-92
2022/10/21 07:57:50;;;;;;;;;5.00;4.00;;;;;18.10;76.67;100688.16;2391901;28;45508;-91
2022/10/21 07:59:03;;;;;;;;;7.00;3.50;;;;;18.10;76.79;100685.50;2396383;28;46938;-90
2022/10/21 08:00:13;;;;;;;;;6.00;4.75;;;;;18.10;76.47;100678.38;2402199;28;45424;-90
2022/10/21 08:01:24;;;;;;;;;4.50;3.25;;;;;18.11;76.49;100682.78;2386139;28;48096;-87
2022/10/21 08:02:34;;;;;;;;;5.00;3.75;;;;;18.13;76.67;100685.31;2388125;28;45308;-87
2022/10/21 08:03:46;;;;;;;;;5.00;3.50;;;;;18.16;76.85;100687.78;2397202;28;45446;-88
2022/10/21 08:04:56;;;;;;;;;3.00;2.25;;;;;18.18;76.43;100685.88;2406112;28;45221;-88
2022/10/21 08:06:08;;;;;;;;;5.00;4.50;;;;;18.18;76.67;100680.53;2402986;28;45531;-88
2022/10/21 08:07:18;;;;;;;;;7.25;5.25;;;;;18.19;76.46;100676.09;2404648;28;45174;-88
2022/10/21 08:08:30;;;;;;;;;5.00;5.00;;;;;18.21;76.50;100684.84;2403222;28;45143;-89
2022/10/21 08:09:40;;;;;;;;;4.00;3.00;;;;;18.20;76.51;100678.66;2390610;28;45290;-89
2022/10/21 08:10:52;;;;;;;;;4.00;4.00;;;;;18.22;76.86;100673.25;2386460;28;45408;-90
2022/10/21 08:12:03;;;;;;;;;4.00;4.00;;;;;18.22;76.28;100673.25;2394641;28;45301;-89
2022/10/21 08:13:13;;;;;;;;;3.50;3.00;;;;;18.24;76.36;100684.66;2395975;28;45412;-90
2022/10/21 08:14:24;;;;;;;;;3.00;3.00;;;;;18.24;76.42;100684.66;2403449;28;45420;-90
2022/10/21 08:15:34;;;;;;;;;5.25;4.50;;;;;18.20;76.41;100673.34;2392850;28;47375;-89
2022/10/21 08:16:44;;;;;;;;;4.00;4.00;;;;;18.20;76.13;100678.66;2386332;28;45456;-88
2022/10/21 08:17:55;;;;;;;;;4.00;3.75;;;;;18.22;76.35;100684.72;2387227;28;45435;-89
2022/10/21 08:19:06;;;;;;;;;4.00;4.00;;;;;18.20;76.06;100680.47;2392911;28;44828;-89
2022/10/21 08:20:17;;;;;;;;;6.00;5.00;;;;;18.18;76.08;100688.53;2395142;28;45332;-89
2022/10/21 08:21:27;;;;;;;;;9.00;6.25;;;;;18.18;76.62;100691.19;2403425;28;45259;-90
2022/10/21 08:22:38;;;;;;;;;4.75;2.25;;;;;18.16;76.11;100697.56;2392214;28;47017;-90
2022/10/21 08:23:48;;;;;;;;;10.00;7.25;;;;;18.14;76.30;100689.69;2383814;28;45324;-89
2022/10/21 08:24:58;;;;;;;;;5.75;5.50;;;;;18.13;76.13;100700.41;2386498;28;46414;-90
2022/10/21 08:26:12;;;;;;;;;5.75;4.50;;;;;18.12;76.59;100694.25;2393959;28;45226;-90
2022/10/21 08:27:23;;;;;;;;;6.50;4.75;;;;;18.10;76.52;100697.00;2393659;28;45617;-90
2022/10/21 08:28:33;;;;;;;;;4.25;4.25;;;;;18.10;76.27;100694.34;2393553;28;44758;-89
2022/10/21 08:29:43;;;;;;;;;4.25;4.00;;;;;18.09;76.69;100694.47;2399392;28;45803;-89
2022/10/21 08:31:08;;;;;;;;;4.25;4.25;;;;;18.11;76.54;100697.88;2400508;28;45257;-90
2022/10/21 08:32:18;;;;;;;;;6.00;4.50;;;;;18.09;76.75;100697.13;2384663;28;47295;-89
2022/10/21 08:33:29;;;;;;;;;3.25;3.25;;;;;18.07;77.25;100689.25;2386453;28;45238;-89
2022/10/21 08:34:39;;;;;;;;;3.50;3.50;;;;;18.07;77.34;100689.25;2395737;28;46565;-89
2022/10/21 08:35:50;;;;;;;;;11.00;8.00;;;;;18.10;77.42;100690.81;2392672;28;45161;-89
2022/10/21 08:37:00;;;;;;;;;5.25;4.75;;;;;18.11;77.21;100689.88;2395290;28;46897;-89
2022/10/21 08:38:11;;;;;;;;;11.75;9.00;;;;;18.13;77.27;100693.28;2383679;28;44871;-87
2022/10/21 08:39:23;;;;;;;;;5.50;5.00;;;;;18.14;77.27;100696.81;2380369;28;47307;-87
2022/10/21 08:40:47;;;;;;;;;8.25;6.25;;;;;18.15;77.67;100691.38;2377188;28;45331;-88
2022/10/21 08:42:16;;;;;;;;;6.00;5.00;;;;;18.17;77.68;100697.47;2396251;28;45450;-86
2022/10/21 08:43:33;;;;;;;;;3.50;3.50;;;;;18.19;77.71;100697.38;2392691;28;45265;-86
2022/10/21 08:44:51;;;;;;;;;4.00;4.00;;;;;18.21;77.83;100701.66;2388132;28;46369;-85
2022/10/21 08:46:15;;;;;;;;;15.75;11.00;;;;;18.27;77.66;100704.88;2389176;28;44731;-85
2022/10/21 08:47:35;;;;;;;;;8.50;6.00;;;;;18.28;77.88;100698.59;2393802;28;45887;-87
2022/10/21 08:48:52;;;;;;;;;9.50;7.00;;;;;18.29;77.64;100706.47;2393705;28;45219;-87
2022/10/21 08:50:13;;;;;;;;;3.25;3.25;;;;;18.29;77.28;100702.97;2387314;28;48277;-86
2022/10/21 08:51:46;;;;;;;;;6.00;5.75;;;;;18.31;77.82;100701.03;2394566;28;45425;-86
2022/10/21 08:53:03;;;;;;;;;6.00;4.00;;;;;18.35;77.54;100702.53;2393626;28;46573;-87
2022/10/21 08:54:23;;;;;;;;;5.00;4.00;;;;;18.36;77.31;100700.72;2390969;28;44649;-87
2022/10/21 08:55:44;;;;;;;;;6.00;4.25;;;;;18.40;77.59;100710.22;2391737;28;46489;-87
2022/10/21 08:56:59;;;;;;;;;6.00;6.00;;;;;18.41;77.42;100707.47;2401121;28;45439;-90
2022/10/21 08:58:16;;;;;;;;;5.75;4.25;;;;;18.44;77.68;100712.59;2379808;28;45437;-87
2022/10/21 08:59:27;;;;;;;;;5.00;3.50;;;;;18.51;77.58;100709.50;2381470;28;44890;-87
2022/10/21 09:00:46;;;;;;;;;4.00;4.00;;;;;18.56;77.45;100704.72;2393830;28;46402;-87
2022/10/21 09:02:07;;;;;;;;;4.25;4.00;;;;;18.61;77.91;100707.06;2396034;28;45219;-87
2022/10/21 09:03:23;;;;;;;;;3.25;2.00;;;;;18.65;77.72;100704.09;2393590;28;46468;-87
2022/10/21 09:05:05;;;;;;;;;5.25;4.00;;;;;18.71;77.62;100712.63;2393815;28;44684;-87
2022/10/21 09:06:18;;;;;;;;;4.75;4.75;;;;;18.75;78.03;100711.44;2376594;28;47123;-87
2022/10/21 09:07:36;;;;;;;;;3.00;3.00;;;;;18.81;77.62;100712.84;2385803;28;45227;-87
2022/10/21 09:09:05;;;;;;;;;4.50;4.00;;;;;18.84;77.78;100708.13;2386648;28;47556;-87
2022/10/21 09:10:36;;;;;;;;;7.00;5.00;;;;;18.89;77.61;100707.81;2387770;28;45268;-87
2022/10/21 09:11:49;;;;;;;;;4.50;4.00;;;;;18.96;77.64;100706.47;2392432;28;46964;-87
2022/10/21 09:13:15;;;;;;;;;4.50;3.75;;;;;19.01;77.58;100716.78;2383301;28;45198;-87
2022/10/21 09:14:41;;;;;;;;;4.00;3.00;;;;;19.05;77.09;100704.09;2383857;28;47672;-88
2022/10/21 09:16:02;;;;;;;;;4.25;4.25;;;;;19.06;76.82;100705.81;2387586;28;45295;-87
2022/10/21 09:17:31;;;;;;;;;3.75;3.50;;;;;19.08;76.75;100693.25;2391274;28;48432;-87
2022/10/21 09:19:10;;;;;;;;;5.00;4.00;;;;;19.14;77.59;100699.97;2383422;28;45416;-87
2022/10/21 09:20:39;;;;;;;;;4.25;3.25;;;;;19.21;77.55;100711.91;2382775;28;46280;-87
2022/10/21 09:22:08;;;;;;;;;4.50;4.00;;;;;19.26;76.95;100714.25;2401577;28;45211;-87
2022/10/21 09:23:41;;;;;;;;;3.00;3.00;;;;;19.29;76.88;100712.22;2402191;28;46515;-87
2022/10/21 09:24:59;;;;;;;;;4.00;4.00;;;;;19.31;77.06;100712.94;2393261;28;44741;-88
2022/10/21 09:26:20;;;;;;;;;4.75;4.00;;;;;19.34;77.00;100710.06;2392405;28;46339;-87
2022/10/21 09:27:31;;;;;;;;;3.00;3.00;;;;;19.37;77.00;100713.47;2383489;28;44687;-87
2022/10/21 09:28:42;;;;;;;;;4.50;4.00;;;;;19.39;76.79;100711.56;2385697;28;48017;-87
2022/10/21 09:29:59;;;;;;;;;4.00;4.00;;;;;19.42;76.44;100701.53;2392941;28;45223;-87
2022/10/21 09:31:16;;;;;;;;;2.00;2.00;;;;;19.45;76.42;100700.47;2396208;28;46292;-87
2022/10/21 09:32:49;;;;;;;;;5.25;5.25;;;;;19.49;76.74;100707.28;2400221;28;44722;-88
2022/10/21 09:34:02;;;;;;;;;4.25;3.50;;;;;19.52;76.44;100716.88;2384738;28;48119;-87
2022/10/21 09:35:21;;;;;;;;;4.00;3.25;;;;;19.50;76.16;100705.47;2386646;28;45277;-87
2022/10/21 09:36:37;;;;;;;;;4.25;4.00;;;;;19.53;76.22;100708.75;2401930;28;47567;-88
2022/10/21 09:37:50;;;;;;;;;3.00;3.00;;;;;19.57;76.05;100706.72;2393564;28;45338;-88
2022/10/21 09:39:06;;;;;;;;;3.00;3.00;;;;;19.56;76.15;100708.53;2392541;28;47106;-89
2022/10/21 09:40:23;;;;;;;;;5.25;5.25;;;;;19.59;76.05;100707.47;2387077;28;45274;-88
2022/10/21 09:41:43;;;;;;;;;4.25;4.25;;;;;19.59;76.04;100707.47;2393020;28;46471;-88
2022/10/21 09:42:55;;;;;;;;;7.25;5.00;;;;;19.63;76.28;100700.94;2383061;28;45287;-88
2022/10/21 09:44:15;;;;;;;;;4.00;3.00;;;;;19.67;76.12;100704.25;2391649;28;45539;-84
2022/10/21 09:45:32;;;;;;;;;3.75;3.75;;;;;19.69;75.71;100702.31;2399644;28;45230;-89
2022/10/21 09:46:47;;;;;;;;;5.50;5.50;;;;;19.69;75.80;100694.31;2392384;28;48452;-89
2022/10/21 09:48:18;;;;;;;;;6.50;3.25;;;;;19.72;75.73;100706.56;2392508;28;44747;-89
2022/10/21 09:49:31;;;;;;;;;6.00;5.00;;;;;19.69;75.80;100702.31;2366356;28;47563;-89
2022/10/21 09:50:43;;;;;;;;;3.75;3.00;;;;;19.68;75.12;100695.25;2395723;28;44727;-89
2022/10/21 09:51:54;;;;;;;;;5.00;4.25;;;;;19.67;75.59;100698.91;2396398;28;45330;-89
2022/10/21 09:53:22;;;;;;;;;3.50;3.50;;;;;19.68;75.28;100700.59;2393290;28;44794;-89
2022/10/21 09:54:36;;;;;;;;;3.75;2.25;;;;;19.69;75.29;100710.31;2383014;28;46236;-89
2022/10/21 09:55:50;;;;;;;;;4.50;4.50;;;;;19.69;76.02;100704.97;2386432;28;45276;-90
2022/10/21 09:57:12;;;;;;;;;4.00;4.00;;;;;19.72;75.87;100702.09;2384846;28;47162;-88
2022/10/21 09:58:42;;;;;;;;;4.00;4.00;;;;;19.75;75.89;100704.56;2380816;28;45516;-89
2022/10/21 09:59:57;;;;;;;;;3.25;3.00;;;;;19.83;75.68;100705.81;2393023;28;45384;-88
2022/10/21 10:01:14;;;;;;;;;5.00;4.25;;;;;19.87;75.86;100707.28;2389980;28;44844;-90
2022/10/21 10:02:33;;;;;;;;;3.75;3.00;;;;;19.93;74.70;100711.31;2407234;28;45587;-89
2022/10/21 10:03:51;;;;;;;;;5.00;4.75;;;;;19.98;75.33;100706.47;2395148;28;45334;-88
2022/10/21 10:05:41;;;;;;;;;8.00;2.00;;;;;20.05;75.26;100706.88;2384510;28;46985;-89
2022/10/21 10:06:51;;;;;;;;;6.00;5.00;;;;;20.11;75.15;100706.44;2400354;28;45397;-92
2022/10/21 10:08:30;;;;;;;;;5.25;4.75;;;;;20.17;75.28;100711.34;2403769;28;46456;-88
2022/10/21 10:09:45;;;;;;;;;3.75;3.75;;;;;20.23;75.01;100710.00;2403252;28;45336;-91
2022/10/21 10:11:07;;;;;;;;;6.50;4.25;;;;;20.24;74.86;100717.94;2388251;28;47266;-91
2022/10/21 10:12:24;;;;;;;;;4.00;4.00;;;;;20.27;74.06;100711.50;2395165;28;45279;-93
2022/10/21 10:13:39;;;;;;;;;5.50;4.00;;;;;20.28;74.18;100707.00;2394826;28;46623;-93
2022/10/21 10:14:49;;;;;;;;;6.50;3.50;;;;;20.27;73.50;100710.66;2404483;28;45222;-89
2022/10/21 10:16:23;;;;;;;;;7.75;5.50;;;;;20.23;73.59;100708.19;2385194;28;47901;-91
2022/10/21 10:17:38;;;;;;;;;4.25;4.25;;;;;20.18;73.61;100707.69;2390252;28;44711;-90
2022/10/21 10:19:09;;;;;;;;;4.00;4.00;;;;;20.14;73.58;100711.56;2378233;28;48355;-90
2022/10/21 10:20:20;;;;;;;;;7.25;5.50;;;;;20.09;74.03;100711.03;2391083;28;45270;-91
2022/10/21 10:21:30;;;;;;;;;7.00;6.50;;;;;20.07;73.84;100711.16;2390274;28;47801;-87
2022/10/21 10:22:59;;;;;;;;;4.00;4.00;;;;;20.04;74.06;100706.03;2379066;28;44914;-89
2022/10/21 10:24:19;;;;;;;;;4.50;4.50;;;;;20.04;72.96;100721.19;2395463;28;45277;-91
2022/10/21 10:25:32;;;;;;;;;5.75;5.00;;;;;19.99;72.95;100714.38;2394428;28;45324;-91
2022/10/21 10:26:44;;;;;;;;;6.75;5.25;;;;;19.97;73.04;100715.44;2387661;28;47119;-90
2022/10/21 10:28:08;;;;;;;;;8.75;3.25;;;;;19.95;72.81;100715.53;2385803;28;45402;-87
2022/10/21 10:29:27;;;;;;;;;4.00;4.00;;;;;19.93;72.35;100717.47;2389339;28;46392;-91
2022/10/21 10:30:48;;;;;;;;;5.00;4.00;;;;;19.92;72.71;100718.47;2384497;28;45516;-90
2022/10/21 10:32:00;;;;;;;;;4.50;4.50;;;;;19.91;72.86;100714.06;2379057;28;47384;-89
2022/10/21 10:33:19;;;;;;;;;4.50;4.00;;;;;19.89;73.23;100710.69;2378287;28;45434;-92
2022/10/21 10:34:36;;;;;;;;;5.00;4.00;;;;;19.92;73.13;100718.47;2388370;28;46362;-86
2022/10/21 10:35:54;;;;;;;;;4.25;4.25;;;;;19.91;72.92;100716.75;2394525;28;45271;-88
2022/10/21 10:37:14;;;;;;;;;5.00;5.00;;;;;19.90;73.46;100715.06;2384501;28;48188;-90
2022/10/21 10:38:28;;;;;;;;;5.50;4.75;;;;;19.94;73.27;100718.34;2387046;28;45312;-89
2022/10/21 10:39:39;;;;;;;;;1.50;1.50;;;;;19.92;73.45;100720.28;2387169;28;48075;-92
2022/10/21 10:40:50;;;;;;;;;4.75;3.50;;;;;19.93;73.44;100720.16;2393259;28;44644;-91
2022/10/21 10:42:02;;;;;;;;;3.25;3.25;;;;;19.95;73.08;100712.88;2394245;28;45292;-90
2022/10/21 10:43:21;;;;;;;;;2.00;1.00;;;;;19.96;73.01;100724.41;2393778;28;45204;-91
2022/10/21 10:44:36;;;;;;;;;3.75;3.00;;;;;19.97;72.77;100710.97;2388455;28;47947;-92
2022/10/21 10:46:00;;;;;;;;;6.00;3.25;;;;;19.96;72.36;100711.06;2397381;28;45259;-92
2022/10/21 10:47:23;;;;;;;;;5.25;3.00;;;;;19.96;72.41;100709.25;2393567;28;46272;-84
2022/10/21 10:48:39;;;;;;;;;4.00;4.00;;;;;19.97;72.01;100715.44;2389452;28;45429;-87
2022/10/21 10:49:50;;;;;;;;;4.50;3.00;;;;;19.97;71.36;100718.97;2399271;28;46627;-89
2022/10/21 10:51:06;;;;;;;;;6.50;5.00;;;;;19.96;71.09;100716.41;2401335;28;44735;-91
2022/10/21 10:52:23;;;;;;;;;5.00;3.25;;;;;19.95;71.62;100717.38;2394229;28;46588;-87
2022/10/21 10:53:37;;;;;;;;;4.00;3.25;;;;;19.94;70.93;100708.53;2384493;28;45263;-87
2022/10/21 10:55:07;;;;;;;;;5.00;3.50;;;;;19.94;70.59;100705.00;2394606;28;46377;-87
2022/10/21 10:56:28;;;;;;;;;6.75;4.75;;;;;19.94;70.98;100702.34;2403565;28;45203;-90
2022/10/21 10:57:41;;;;;;;;;10.75;3.00;;;;;19.92;71.36;100705.13;2393612;28;48399;-89
2022/10/21 10:59:15;;;;;;;;;4.00;3.00;;;;;19.94;71.08;100713.00;2390427;28;45537;-86
2022/10/21 11:00:27;;;;;;;;;4.00;2.25;;;;;19.95;71.05;100712.06;2392204;28;45452;-92
2022/10/21 11:01:48;;;;;;;;;3.00;3.00;;;;;19.96;71.34;100711.94;2375075;28;45237;-91
2022/10/21 11:03:09;;;;;;;;;3.75;3.00;;;;;19.97;71.82;100710.97;2369469;28;49043;-89
2022/10/21 11:04:32;;;;;;;;;4.50;3.00;;;;;20.00;71.12;100708.06;2384533;28;45233;-90
2022/10/21 11:05:49;;;;;;;;;3.25;3.00;;;;;20.01;70.65;100707.09;2374903;28;47245;-86
2022/10/21 11:07:10;;;;;;;;;5.75;3.25;;;;;20.02;70.80;100706.16;2382670;28;45523;-85
2022/10/21 11:08:31;;;;;;;;;2.25;2.25;;;;;20.05;70.94;100699.72;2384993;28;46143;-83
2022/10/21 11:09:41;;;;;;;;;4.25;3.50;;;;;20.07;70.65;100704.94;2391605;28;45267;-84
2022/10/21 11:11:01;;;;;;;;;5.00;2.50;;;;;20.09;70.58;100703.00;2384104;28;48186;-83
2022/10/21 11:12:19;;;;;;;;;3.00;3.00;;;;;20.09;70.73;100692.34;2388602;28;45360;-83
2022/10/21 11:13:32;;;;;;;;;4.00;3.00;;;;;20.12;69.95;100695.66;2388358;28;45415;-83
2022/10/21 11:14:45;;;;;;;;;3.25;1.75;;;;;20.15;70.30;100693.75;2386499;28;45335;-83
2022/10/21 11:16:00;;;;;;;;;4.00;2.50;;;;;20.19;70.59;100692.53;2394243;28;45408;-84
2022/10/21 11:17:15;;;;;;;;;5.50;3.00;;;;;20.20;70.90;100689.75;2392596;28;45424;-84
2022/10/21 11:18:33;;;;;;;;;3.00;3.00;;;;;20.23;70.32;100694.00;2384950;28;46820;-84
2022/10/21 11:19:56;;;;;;;;;6.25;3.50;;;;;20.29;70.38;100698.03;2384964;28;44743;-83
2022/10/21 11:21:12;;;;;;;;;6.00;3.75;;;;;20.31;69.75;100694.28;2392322;28;45417;-85
2022/10/21 11:22:50;;;;;;;;;4.75;2.50;;;;;20.35;69.86;100693.06;2394190;28;45293;-83
2022/10/21 11:24:04;;;;;;;;;2.25;2.25;;;;;20.38;69.43;100697.34;2394354;28;46516;-83
2022/10/21 11:25:20;;;;;;;;;5.25;2.25;;;;;20.42;69.51;100692.63;2394318;28;45445;-84
2022/10/21 11:26:45;;;;;;;;;2.00;1.25;;;;;20.44;68.78;100686.22;2375167;28;47294;-83
2022/10/21 11:28:04;;;;;;;;;3.75;2.00;;;;;20.51;69.25;100699.06;2379538;28;45281;-84
2022/10/21 11:29:50;;;;;;;;;3.00;2.50;;;;;20.54;68.90;100699.72;2376244;28;48116;-84
2022/10/21 11:31:19;;;;;;;;;3.00;2.50;;;;;20.58;69.06;100698.50;2386515;28;45292;-84
2022/10/21 11:32:43;;;;;;;;;2.75;2.00;;;;;20.61;68.71;100704.56;2384892;28;46637;-85
2022/10/21 11:33:59;;;;;;;;;5.50;4.00;;;;;20.64;67.84;100690.97;2384085;28;45301;-84
2022/10/21 11:35:37;;;;;;;;;2.50;1.00;;;;;20.67;68.01;100704.94;2374627;28;48355;-84
2022/10/21 11:37:36;;;;;;;;;3.25;2.75;;;;;20.70;68.08;100706.53;2386208;28;45425;-85
2022/10/21 11:39:04;;;;;;;;;1.00;1.00;;;;;20.71;67.99;100704.69;2356653;29;45368;-85
2022/10/21 11:40:40;;;;;;;;;2.00;2.00;;;;;20.72;67.51;100709.09;2346936;29;45424;-85
2022/10/21 11:41:55;;;;;;;;;3.00;3.00;;;;;20.71;66.83;100708.22;2348574;29;47041;-85
2022/10/21 11:43:25;;;;;;;;;2.75;2.75;;;;;20.71;67.18;100705.56;2359195;29;45278;-85
2022/10/21 11:45:12;;;;;;;;;4.00;2.25;;;;;20.75;67.94;100711.50;2381788;28;46536;-86
2022/10/21 11:46:39;;;;;;;;;1.75;1.75;;;;;20.76;67.78;100715.88;2387623;28;45455;-86
2022/10/21 11:47:55;;;;;;;;;2.75;2.00;;;;;20.76;67.90;100711.41;2391753;28;45407;-86
2022/10/21 11:49:40;;;;;;;;;4.75;2.00;;;;;20.77;65.94;100712.22;2384097;28;45256;-86
2022/10/21 11:51:01;;;;;;;;;3.75;2.00;;;;;20.78;66.87;100713.94;2379528;28;48378;-86
2022/10/21 11:52:17;;;;;;;;;2.00;2.00;;;;;20.78;66.55;100713.94;2378677;28;45411;-86
2022/10/21 11:53:47;;;;;;;;;1.75;1.75;;;;;20.81;63.60;100711.03;2387273;28;45454;-86
2022/10/21 11:55:33;;;;;;;;;4.00;1.00;;;;;20.78;64.99;100705.94;2393080;28;45488;-83
2022/10/21 11:56:56;;;;;;;;;2.50;1.00;;;;;20.76;65.28;100699.88;2370498;28;47690;-84
2022/10/21 11:58:28;;;;;;;;;2.25;1.00;;;;;20.77;64.97;100702.41;2384411;28;45291;-84
2022/10/21 12:00:00;;;;;;;;;4.00;2.25;;;;;20.78;64.65;100703.25;2393853;28;45611;-85
2022/10/21 12:01:22;;;;;;;;;1.00;1.00;;;;;20.78;65.51;100700.59;2394319;28;45155;-84
2022/10/21 12:02:38;;;;;;;;;2.25;1.25;;;;;20.81;65.18;100692.34;2393897;28;46331;-84
2022/10/21 12:04:01;;;;;;;;;2.50;2.00;;;;;20.82;64.88;100709.22;2384792;28;44621;-84
2022/10/21 12:05:29;;;;;;;;;2.00;2.00;;;;;20.82;65.07;100704.72;2390367;28;45445;-83
2022/10/21 12:07:11;;;;;;;;;2.50;2.25;;;;;20.86;65.14;100713.34;2399974;28;45528;-84
2022/10/21 12:08:30;;;;;;;;;1.25;1.25;;;;;20.83;63.10;100709.09;2389945;28;47179;-83
2022/10/21 12:09:49;;;;;;;;;3.75;0.25;;;;;20.80;64.51;100695.97;2391879;28;45387;-84
2022/10/21 12:11:07;;;;;;;;;2.75;0.00;;;;;20.83;64.38;100695.75;2398367;28;45584;-84
2022/10/21 12:12:27;;;;;;;;;4.00;1.00;;;;;20.85;64.85;100696.47;2394054;28;44601;-84
2022/10/21 12:13:43;;;;;;;;;2.00;1.00;;;;;20.83;64.91;100690.41;2382771;28;47387;-84
2022/10/21 12:14:57;;;;;;;;;1.25;0.75;;;;;20.86;64.78;100689.31;2387780;28;45493;-84
2022/10/21 12:16:12;;;;;;;;;3.50;1.00;;;;;20.84;63.46;100686.75;2386728;28;46627;-84
2022/10/21 12:17:23;;;;;;;;;3.00;2.00;;;;;20.82;63.66;100683.34;2396013;28;45255;-83
2022/10/21 12:18:41;;;;;;;;;2.25;1.50;;;;;20.82;64.05;100683.34;2383515;28;47501;-84
2022/10/21 12:20:13;;;;;;;;;3.25;1.50;;;;;20.80;64.66;100685.28;2392679;28;45503;-84
2022/10/21 12:21:27;;;;;;;;;1.75;1.00;;;;;20.78;64.49;100682.75;2401320;28;46553;-84
2022/10/21 12:22:38;;;;;;;;;3.00;2.00;;;;;20.78;63.30;100681.91;2403371;28;45316;-84
2022/10/21 12:23:56;;;;;;;;;2.00;2.00;;;;;20.76;64.00;100678.50;2390304;28;47485;-84
2022/10/21 12:25:23;;;;;;;;;2.50;1.25;;;;;20.73;64.53;100665.38;2395321;28;45617;-83
2022/10/21 12:26:50;;;;;;;;;2.00;1.00;;;;;20.69;63.71;100670.94;2401176;28;46574;-83
2022/10/21 12:28:04;;;;;;;;;1.00;0.75;;;;;20.70;64.29;100674.47;2387201;28;45216;-84
2022/10/21 12:29:51;;;;;;;;;2.00;0.00;;;;;20.68;64.14;100674.59;2387350;28;45507;-83
2022/10/21 12:31:44;;;;;;;;;6.00;1.00;;;;;20.65;63.81;100671.31;2370958;28;45441;-84
2022/10/21 12:33:06;;;;;;;;;0.75;0.00;;;;;20.64;64.53;100670.44;2363756;28;45405;-83
2022/10/21 12:34:16;;;;;;;;;1.25;1.00;;;;;20.61;62.72;100676.03;2394050;28;44601;-84
2022/10/21 12:35:49;;;;;;;;;2.00;1.00;;;;;20.59;62.87;100675.31;2393419;28;45303;-83
2022/10/21 12:37:00;;;;;;;;;1.00;1.00;;;;;20.58;63.14;100673.59;2393638;28;45295;-83
2022/10/21 12:38:23;;;;;;;;;2.50;0.75;;;;;20.60;60.91;100684.16;2393055;28;45302;-83
2022/10/21 12:39:33;;;;;;;;;1.25;0.25;;;;;20.59;60.47;100686.00;2395784;28;45543;-84
2022/10/21 12:40:44;;;;;;;;;0.00;0.00;;;;;20.55;61.48;100677.38;2396101;28;46268;-83
2022/10/21 12:42:11;;;;;;;;;1.25;1.00;;;;;20.59;62.52;100683.31;2385687;28;45320;-83
2022/10/21 12:43:27;;;;;;;;;1.00;1.00;;;;;20.59;62.40;100683.31;2397097;28;45424;-83
2022/10/21 12:44:43;;;;;;;;;1.00;0.25;;;;;20.62;62.82;100682.25;2396745;28;45297;-83
2022/10/21 12:46:03;;;;;;;;;0.00;0.00;;;;;20.62;62.60;100676.91;2395199;28;46608;-84
2022/10/21 12:47:33;;;;;;;;;1.25;1.25;;;;;20.64;62.42;100678.47;2386698;28;45444;-84
2022/10/21 12:48:47;;;;;;;;;1.00;0.75;;;;;20.67;62.92;100670.22;2395948;28;46184;-83
2022/10/21 12:50:21;;;;;;;;;3.50;1.50;;;;;20.68;61.90;100685.28;2398774;28;45250;-84
2022/10/21 12:51:34;;;;;;;;;1.00;1.00;;;;;20.69;61.48;100684.28;2393415;28;46763;-83
2022/10/21 12:52:54;;;;;;;;;3.75;0.50;;;;;20.72;60.75;100675.19;2393077;28;45381;-84
2022/10/21 12:54:12;;;;;;;;;0.50;0.00;;;;;20.72;61.67;100675.19;2393354;28;46600;-83
2022/10/21 12:55:26;;;;;;;;;1.50;1.00;;;;;20.76;60.28;100678.50;2395477;28;44815;-81
2022/10/21 12:56:58;;;;;;;;;2.50;0.25;;;;;20.74;60.52;100667.91;2393542;28;46628;-83
2022/10/21 12:58:52;;;;;;;;;4.00;0.75;;;;;20.79;61.16;100670.25;2396631;28;44864;-83
2022/10/21 13:00:21;;;;;;;;;1.25;1.00;;;;;20.87;61.20;100673.16;2353440;29;45655;-83
2022/10/21 13:01:39;;;;;;;;;2.25;1.25;;;;;20.89;61.73;100667.72;2383330;28;44900;-83